Time;durP1;ratioP1;P1;durP2;ratioP2;P2;SDS_P1;SDS_P2;PMS_P1;PMS_P2;Temp;Humidity;BMP_temperature;BMP_pressure;BME280_temperature;BME280_humidity;BME280_pressure;Samples;Min_cycle;Max_cycle;Signal;HPM_P1;HPM_P2
2021/07/09 00:02:34;;;;;;;25.70;11.48;;;17.90;99.90;;;;;;5043721;28;20045;-81
2021/07/09 00:05:03;;;;;;;25.90;12.82;;;17.90;99.90;;;;;;5025236;28;20046;-81
2021/07/09 00:07:31;;;;;;;26.08;10.68;;;17.80;99.90;;;;;;5042428;28;20050;-83
2021/07/09 00:10:00;;;;;;;23.85;11.10;;;17.80;99.90;;;;;;5042150;28;20061;-82
2021/07/09 00:12:28;;;;;;;23.50;12.07;;;17.90;99.90;;;;;;5025202;28;20059;-80
2021/07/09 00:14:57;;;;;;;26.15;11.00;;;17.90;99.90;;;;;;5022231;28;20050;-83
2021/07/09 00:17:26;;;;;;;27.75;11.35;;;17.90;99.90;;;;;;5034257;28;20053;-82
2021/07/09 00:19:54;;;;;;;27.85;11.27;;;17.80;99.90;;;;;;5027883;28;20034;-80
2021/07/09 00:22:22;;;;;;;28.38;11.70;;;17.80;99.90;;;;;;5041113;28;20057;-80
2021/07/09 00:24:50;;;;;;;23.08;11.27;;;17.80;99.90;;;;;;5043099;28;20052;-80
2021/07/09 00:27:18;;;;;;;26.48;11.48;;;17.80;99.90;;;;;;5037728;28;20053;-81
2021/07/09 00:29:46;;;;;;;22.60;12.05;;;17.70;99.90;;;;;;4996858;28;20784;-80
2021/07/09 00:32:15;;;;;;;26.30;12.38;;;17.70;99.90;;;;;;5015342;28;20045;-81
2021/07/09 00:34:43;;;;;;;23.95;12.30;;;18.00;99.90;;;;;;5027332;28;20046;-80
2021/07/09 00:37:11;;;;;;;28.90;12.02;;;17.70;99.90;;;;;;5040074;28;20076;-81
2021/07/09 00:39:39;;;;;;;30.00;13.73;;;17.70;99.90;;;;;;5025748;28;20046;-80
2021/07/09 00:42:07;;;;;;;25.05;11.48;;;17.70;99.90;;;;;;5022311;28;20050;-81
2021/07/09 00:44:35;;;;;;;23.83;10.35;;;17.60;99.90;;;;;;5010471;28;20045;-81
2021/07/09 00:47:03;;;;;;;29.75;12.02;;;17.60;99.90;;;;;;5012884;28;20049;-81
2021/07/09 00:49:32;;;;;;;31.73;13.88;;;17.50;99.90;;;;;;5041988;28;20053;-81
2021/07/09 00:52:00;;;;;;;22.42;10.45;;;17.50;99.90;;;;;;5042820;28;20053;-81
2021/07/09 00:54:28;;;;;;;30.75;12.95;;;17.50;99.90;;;;;;5036675;28;20076;-81
2021/07/09 00:56:57;;;;;;;25.95;11.07;;;17.50;99.90;;;;;;5009159;28;20053;-82
2021/07/09 00:59:27;;;;;;;30.23;14.32;;;17.50;99.90;;;;;;5042612;28;20056;-81
2021/07/09 01:01:59;;;;;;;28.48;11.90;;;17.50;99.90;;;;;;5007281;28;20057;-81
2021/07/09 01:04:28;;;;;;;30.17;14.10;;;17.40;99.90;;;;;;5023506;28;20053;-79
2021/07/09 01:06:59;;;;;;;35.58;13.90;;;17.40;99.90;;;;;;5027552;28;20050;-80
2021/07/09 01:09:27;;;;;;;33.00;13.05;;;17.40;99.90;;;;;;5023480;28;20060;-80
2021/07/09 01:11:55;;;;;;;35.03;16.27;;;17.30;99.90;;;;;;5032771;28;20050;-82
2021/07/09 01:14:24;;;;;;;24.08;12.38;;;17.30;99.90;;;;;;5021701;28;20045;-81
2021/07/09 01:16:52;;;;;;;29.20;12.95;;;17.00;99.90;;;;;;5014129;28;20053;-81
2021/07/09 01:19:21;;;;;;;29.27;14.10;;;17.40;99.90;;;;;;5023568;28;20049;-81
2021/07/09 01:21:50;;;;;;;32.50;13.27;;;17.30;99.90;;;;;;5041192;28;20049;-80
2021/07/09 01:24:18;;;;;;;28.58;13.68;;;17.30;99.90;;;;;;5057226;28;20049;-81
2021/07/09 01:26:46;;;;;;;25.90;13.65;;;17.20;99.90;;;;;;5033785;28;20052;-81
2021/07/09 01:29:14;;;;;;;28.35;15.43;;;17.20;99.90;;;;;;5039033;28;20042;-80
2021/07/09 01:31:44;;;;;;;26.83;13.25;;;17.20;99.90;;;;;;5042750;28;20053;-81
2021/07/09 01:34:13;;;;;;;26.60;14.02;;;17.40;99.90;;;;;;5041256;28;20060;-81
2021/07/09 01:36:42;;;;;;;27.27;13.70;;;17.10;99.90;;;;;;5040172;28;20053;-82
2021/07/09 01:39:10;;;;;;;26.08;12.55;;;17.10;99.90;;;;;;5040709;28;20354;-81
2021/07/09 01:41:39;;;;;;;28.23;12.85;;;17.10;99.90;;;;;;5041399;28;20048;-81
2021/07/09 01:44:08;;;;;;;33.03;14.40;;;17.10;99.90;;;;;;5027333;28;20046;-81
2021/07/09 01:46:37;;;;;;;28.83;13.10;;;17.10;99.90;;;;;;5028354;28;20054;-82
2021/07/09 01:49:07;;;;;;;27.42;14.10;;;17.10;99.90;;;;;;5023618;28;20522;-80
2021/07/09 01:51:35;;;;;;;31.75;14.40;;;17.00;99.90;;;;;;5004715;28;20046;-80
2021/07/09 01:54:03;;;;;;;29.02;12.82;;;17.10;99.90;;;;;;5033067;28;20041;-80
2021/07/09 01:56:31;;;;;;;31.67;15.85;;;17.00;99.90;;;;;;5025019;28;20525;-80
2021/07/09 01:58:59;;;;;;;33.60;14.60;;;17.00;99.90;;;;;;5043364;28;20042;-82
2021/07/09 02:01:27;;;;;;;31.63;13.95;;;17.00;99.90;;;;;;5041994;28;20051;-80
2021/07/09 02:03:56;;;;;;;31.67;14.35;;;17.00;99.90;;;;;;5034709;28;20057;-80
2021/07/09 02:06:27;;;;;;;28.75;14.65;;;16.90;99.90;;;;;;5041437;28;20050;-82
2021/07/09 02:08:55;;;;;;;27.73;13.38;;;16.90;99.90;;;;;;5025321;28;20586;-78
2021/07/09 02:11:24;;;;;;;29.10;13.48;;;16.90;99.90;;;;;;5042119;28;20053;-81
2021/07/09 02:13:52;;;;;;;29.73;14.68;;;16.90;99.90;;;;;;5043094;28;20395;-80
2021/07/09 02:16:20;;;;;;;32.38;17.05;;;16.90;99.90;;;;;;5039144;28;20046;-82
2021/07/09 02:18:51;;;;;;;29.95;16.02;;;16.80;99.90;;;;;;5024043;28;20045;-81
2021/07/09 02:21:25;;;;;;;31.90;15.70;;;16.90;99.90;;;;;;5008509;28;20045;-81
2021/07/09 02:23:56;;;;;;;32.80;14.02;;;16.90;99.90;;;;;;5040173;28;20046;-80
2021/07/09 02:26:24;;;;;;;29.35;14.57;;;16.90;99.90;;;;;;5045820;28;20050;-82
2021/07/09 02:28:53;;;;;;;31.55;16.80;;;16.80;99.90;;;;;;5024863;28;20058;-81
2021/07/09 02:31:21;;;;;;;29.73;14.55;;;16.90;99.90;;;;;;5025253;28;20057;-80
2021/07/09 02:33:50;;;;;;;25.52;13.80;;;16.80;99.90;;;;;;5028966;28;20045;-81
2021/07/09 02:36:21;;;;;;;28.67;14.98;;;16.80;99.90;;;;;;5046596;28;20078;-81
2021/07/09 02:38:49;;;;;;;30.30;15.20;;;16.80;99.90;;;;;;5045746;28;20045;-80
2021/07/09 02:41:17;;;;;;;29.80;14.43;;;16.80;99.90;;;;;;5044836;28;20053;-81
2021/07/09 02:43:46;;;;;;;29.75;15.82;;;16.80;99.90;;;;;;5034738;28;20049;-79
2021/07/09 02:46:14;;;;;;;29.38;13.63;;;17.90;99.90;;;;;;5030863;28;20045;-81
2021/07/09 02:48:42;;;;;;;28.77;17.17;;;16.80;99.90;;;;;;5045590;28;20050;-80
2021/07/09 02:51:10;;;;;;;39.45;15.07;;;16.80;99.90;;;;;;5044688;28;20038;-81
2021/07/09 02:53:38;;;;;;;24.70;13.63;;;16.80;99.90;;;;;;5044275;28;20051;-81
2021/07/09 02:56:06;;;;;;;31.10;14.05;;;16.80;99.90;;;;;;5043433;28;20045;-82
2021/07/09 02:58:34;;;;;;;31.58;15.45;;;16.80;99.90;;;;;;5028620;28;20061;-81
2021/07/09 03:01:03;;;;;;;27.10;13.90;;;16.80;99.90;;;;;;5042805;28;20057;-81
2021/07/09 03:03:31;;;;;;;27.13;14.82;;;16.80;99.90;;;;;;5040239;28;20056;-83
2021/07/09 03:05:58;;;;;;;27.40;14.45;;;16.80;99.90;;;;;;5023876;28;20057;-81
2021/07/09 03:08:27;;;;;;;33.67;15.23;;;16.80;99.90;;;;;;5024735;28;20482;-81
2021/07/09 03:10:54;;;;;;;31.85;16.83;;;16.80;99.90;;;;;;5025190;28;20056;-80
2021/07/09 03:13:23;;;;;;;32.97;15.70;;;16.70;99.90;;;;;;4994609;28;20049;-81
2021/07/09 03:15:50;;;;;;;30.40;15.43;;;16.70;99.90;;;;;;5037302;28;21071;-80
2021/07/09 03:18:18;;;;;;;28.08;13.93;;;16.60;99.90;;;;;;5026686;28;20057;-81
2021/07/09 03:20:46;;;;;;;26.48;13.70;;;16.60;99.90;;;;;;5024576;28;20053;-81
2021/07/09 03:23:14;;;;;;;33.95;15.60;;;16.60;99.90;;;;;;5022260;28;20061;-79
2021/07/09 03:25:43;;;;;;;29.23;16.40;;;16.60;99.90;;;;;;5037887;28;20049;-80
2021/07/09 03:28:15;;;;;;;29.15;14.32;;;16.60;99.90;;;;;;5026099;28;20045;-80
2021/07/09 03:30:46;;;;;;;31.92;13.57;;;16.60;99.90;;;;;;5059634;28;20041;-81
2021/07/09 03:33:14;;;;;;;30.33;15.07;;;16.60;99.90;;;;;;5042316;28;20462;-81
2021/07/09 03:35:42;;;;;;;27.30;13.93;;;16.60;99.90;;;;;;5042573;28;20060;-79
2021/07/09 03:38:11;;;;;;;29.38;14.48;;;16.60;99.90;;;;;;5042264;28;20045;-82
2021/07/09 03:40:39;;;;;;;28.65;13.65;;;16.60;99.90;;;;;;5044188;28;20049;-81
2021/07/09 03:43:07;;;;;;;28.35;13.02;;;16.60;99.90;;;;;;5042357;28;20118;-81
2021/07/09 03:45:35;;;;;;;26.63;13.98;;;16.60;99.90;;;;;;5043233;28;20049;-79
2021/07/09 03:48:04;;;;;;;34.85;13.80;;;16.60;99.90;;;;;;5043586;28;20042;-80
2021/07/09 03:50:33;;;;;;;26.70;13.32;;;16.60;99.90;;;;;;5044147;28;20556;-81
2021/07/09 03:53:01;;;;;;;25.15;14.02;;;16.60;99.90;;;;;;5026966;28;20037;-81
2021/07/09 03:55:29;;;;;;;29.45;13.60;;;16.60;99.90;;;;;;5044104;28;20049;-80
2021/07/09 03:57:57;;;;;;;23.35;12.57;;;16.60;99.90;;;;;;5038827;28;20042;-80
2021/07/09 04:00:25;;;;;;;25.00;13.05;;;16.60;99.90;;;;;;5024611;28;20562;-80
2021/07/09 04:02:53;;;;;;;25.33;13.77;;;16.60;99.90;;;;;;5006704;28;20049;-81
2021/07/09 04:05:21;;;;;;;30.73;14.55;;;16.50;99.90;;;;;;5008175;28;20048;-81
2021/07/09 04:07:50;;;;;;;26.98;12.70;;;16.50;99.90;;;;;;5018833;28;20053;-80
2021/07/09 04:10:18;;;;;;;25.58;13.93;;;16.50;99.90;;;;;;5045332;28;20510;-82
2021/07/09 04:12:46;;;;;;;28.77;12.35;;;16.50;99.90;;;;;;5044666;28;20056;-81
2021/07/09 04:15:14;;;;;;;26.20;12.70;;;16.50;99.90;;;;;;5027139;28;20053;-81
2021/07/09 04:17:43;;;;;;;30.80;13.20;;;16.10;99.90;;;;;;5026828;28;20042;-80
2021/07/09 04:20:11;;;;;;;24.92;15.63;;;16.50;99.90;;;;;;5025146;28;20046;-81
2021/07/09 04:22:40;;;;;;;21.45;12.65;;;16.60;99.90;;;;;;5043995;28;20050;-80
2021/07/09 04:25:09;;;;;;;26.60;13.13;;;16.60;99.90;;;;;;5042334;28;20151;-80
2021/07/09 04:27:41;;;;;;;25.13;12.98;;;16.60;99.90;;;;;;5030337;28;20038;-81
2021/07/09 04:30:10;;;;;;;;;;;16.60;99.90;;;;;;5008376;28;20054;-81
2021/07/09 04:32:38;;;;;;;32.30;12.32;;;16.60;99.90;;;;;;5024809;28;19921;-80
2021/07/09 04:35:31;;;;;;;25.85;12.75;;;16.60;99.90;;;;;;5025489;28;20052;-81
2021/07/09 04:38:02;;;;;;;30.00;14.85;;;16.70;99.90;;;;;;5040402;28;20120;-81
2021/07/09 04:40:30;;;;;;;24.98;12.35;;;16.70;99.90;;;;;;5059999;28;20059;-78
2021/07/09 04:42:58;;;;;;;24.95;11.07;;;16.70;99.90;;;;;;5009215;28;20056;-81
2021/07/09 04:45:26;;;;;;;24.50;12.05;;;16.70;99.90;;;;;;5043538;28;20859;-81
2021/07/09 04:47:54;;;;;;;22.80;11.63;;;16.60;99.90;;;;;;5041678;28;20049;-79
2021/07/09 04:50:22;;;;;;;23.35;11.00;;;16.70;99.90;;;;;;5041118;28;20057;-80
2021/07/09 04:52:51;;;;;;;22.38;11.68;;;16.70;99.90;;;;;;5040310;28;20057;-81
2021/07/09 04:55:19;;;;;;;25.33;12.00;;;16.80;99.90;;;;;;5040201;28;20046;-81
2021/07/09 04:57:47;;;;;;;20.85;10.38;;;16.70;99.90;;;;;;5028252;28;20065;-81
2021/07/09 05:00:15;;;;;;;22.65;10.07;;;16.80;99.90;;;;;;5020384;28;20064;-80
2021/07/09 05:02:43;;;;;;;20.02;10.82;;;16.70;99.90;;;;;;5020457;28;20046;-79
2021/07/09 05:05:15;;;;;;;22.63;11.90;;;16.80;99.90;;;;;;5020756;28;20050;-79
2021/07/09 05:07:46;;;;;;;28.42;11.25;;;16.80;99.90;;;;;;5038643;28;20732;-80
2021/07/09 05:10:16;;;;;;;20.25;10.63;;;16.80;99.90;;;;;;5041477;28;20042;-82
2021/07/09 05:12:47;;;;;;;23.35;13.85;;;16.90;99.90;;;;;;5041024;28;20503;-78
2021/07/09 05:15:15;;;;;;;26.58;12.30;;;16.90;99.90;;;;;;5041621;28;20052;-80
2021/07/09 05:17:43;;;;;;;25.20;10.10;;;17.00;99.90;;;;;;5041451;28;20195;-80
2021/07/09 05:20:12;;;;;;;20.65;10.20;;;17.00;99.90;;;;;;5041207;28;20050;-80
2021/07/09 05:22:40;;;;;;;22.88;12.93;;;17.00;99.90;;;;;;5041752;28;20064;-79
2021/07/09 05:25:10;;;;;;;21.40;10.15;;;17.00;99.90;;;;;;5040963;28;20053;-81
2021/07/09 05:27:38;;;;;;;25.95;12.15;;;17.00;99.90;;;;;;5041692;28;20060;-80
2021/07/09 05:30:07;;;;;;;19.67;9.98;;;17.00;99.90;;;;;;5040927;28;20050;-81
2021/07/09 05:32:35;;;;;;;21.65;11.35;;;17.00;99.90;;;;;;5040049;28;20395;-82
2021/07/09 05:35:06;;;;;;;24.15;10.90;;;17.00;99.90;;;;;;5024174;28;20088;-82
2021/07/09 05:37:34;;;;;;;22.65;9.98;;;17.00;99.90;;;;;;5025617;28;20054;-83
2021/07/09 05:40:05;;;;;;;20.58;10.05;;;17.00;99.90;;;;;;5020447;28;20836;-82
2021/07/09 05:42:34;;;;;;;22.38;11.30;;;17.00;99.90;;;;;;5056725;28;20053;-81
2021/07/09 05:45:06;;;;;;;27.92;11.70;;;17.90;99.90;;;;;;5040728;28;20065;-82
2021/07/09 05:47:34;;;;;;;20.25;9.30;;;17.10;99.90;;;;;;5023947;28;20050;-80
2021/07/09 05:50:03;;;;;;;21.95;10.82;;;17.10;99.90;;;;;;5044150;28;20072;-82
2021/07/09 05:52:31;;;;;;;19.70;10.20;;;17.10;99.90;;;;;;5045413;28;20049;-82
2021/07/09 05:55:00;;;;;;;29.65;12.30;;;17.20;99.90;;;;;;5045145;28;20054;-82
2021/07/09 05:57:29;;;;;;;25.42;10.20;;;17.20;99.90;;;;;;5052863;28;20390;-79
2021/07/09 05:59:57;;;;;;;23.45;10.65;;;17.20;99.90;;;;;;5024763;28;20061;-83
2021/07/09 06:02:25;;;;;;;19.58;10.20;;;17.30;99.90;;;;;;5038239;28;20049;-82
2021/07/09 06:04:56;;;;;;;21.23;9.82;;;17.40;99.90;;;;;;5029319;28;20057;-83
2021/07/09 06:07:37;;;;;;;20.27;9.75;;;17.40;99.90;;;;;;5045279;28;20056;-83
2021/07/09 06:10:16;;;;;;;23.45;9.68;;;17.40;99.90;;;;;;5045646;28;20053;-83
2021/07/09 06:12:44;;;;;;;15.65;8.52;;;17.50;99.90;;;;;;5058688;28;20049;-81
2021/07/09 06:15:12;;;;;;;19.55;9.07;;;17.50;99.90;;;;;;5027227;28;20047;-81
2021/07/09 06:17:41;;;;;;;22.55;11.73;;;17.50;99.90;;;;;;5042246;28;20033;-80
2021/07/09 06:20:12;;;;;;;18.50;8.77;;;17.50;99.90;;;;;;5043390;28;20045;-84
2021/07/09 06:22:40;;;;;;;21.25;9.80;;;17.60;99.90;;;;;;5044592;28;20187;-81
2021/07/09 06:25:10;;;;;;;20.75;10.18;;;17.60;99.90;;;;;;5042214;28;20041;-81
2021/07/09 06:27:42;;;;;;;22.88;9.35;;;17.70;99.90;;;;;;5012649;28;20117;-82
2021/07/09 06:30:12;;;;;;;;;;;17.70;99.90;;;;;;5044721;28;20049;-81
2021/07/09 06:32:41;;;;;;;20.52;9.23;;;17.80;99.90;;;;;;5040571;28;19925;-81
2021/07/09 06:35:17;;;;;;;21.15;9.15;;;17.00;99.90;;;;;;5043035;28;20073;-80
2021/07/09 06:37:46;;;;;;;18.20;8.05;;;18.70;99.90;;;;;;5042444;28;20052;-82
2021/07/09 06:40:16;;;;;;;20.33;10.10;;;17.70;99.90;;;;;;5045698;28;20053;-81
2021/07/09 06:42:44;;;;;;;20.88;8.68;;;17.80;99.90;;;;;;5026456;28;20054;-81
2021/07/09 06:45:13;;;;;;;20.00;9.15;;;17.90;99.90;;;;;;5042040;28;20042;-84
2021/07/09 06:47:42;;;;;;;18.45;8.73;;;17.90;99.90;;;;;;5020069;28;20044;-82
2021/07/09 06:50:12;;;;;;;17.38;8.48;;;18.00;99.90;;;;;;5028288;28;20042;-83
2021/07/09 06:52:44;;;;;;;25.15;10.48;;;18.10;99.90;;;;;;5025051;28;20055;-83
2021/07/09 06:55:23;;;;;;;20.77;11.07;;;18.30;99.90;;;;;;5026463;28;20049;-85
2021/07/09 06:58:02;;;;;;;18.52;8.82;;;17.80;99.90;;;;;;5040160;28;20055;-82
2021/07/09 07:00:57;;;;;;;20.92;9.27;;;18.10;99.90;;;;;;5040734;28;20064;-83
2021/07/09 07:03:37;;;;;;;18.92;9.90;;;18.20;99.90;;;;;;5007169;28;20046;-82
2021/07/09 07:06:12;;;;;;;21.00;10.77;;;18.30;99.90;;;;;;5042945;28;20068;-84
2021/07/09 07:08:50;;;;;;;17.77;9.10;;;18.50;99.90;;;;;;5044631;28;20056;-84
2021/07/09 07:11:22;;;;;;;19.80;9.90;;;18.40;99.90;;;;;;5026567;28;20064;-84
2021/07/09 07:13:58;;;;;;;19.30;9.40;;;18.60;99.90;;;;;;5057012;28;20067;-83
2021/07/09 07:17:09;;;;;;;34.55;11.43;;;18.60;99.90;;;;;;5033487;28;20041;-84
2021/07/09 07:19:43;;;;;;;22.35;11.52;;;17.80;99.90;;;;;;5058802;28;20057;-84
2021/07/09 07:22:37;;;;;;;;;;;;;;;;;;;;;
2021/07/09 07:25:19;;;;;;;20.83;9.70;;;18.70;99.90;;;;;;5045990;28;20041;-81
2021/07/09 07:28:17;;;;;;;23.40;9.30;;;18.70;99.90;;;;;;5041648;28;20042;-84
2021/07/09 07:31:59;;;;;;;21.00;10.05;;;18.80;99.90;;;;;;5015088;28;20068;-84
2021/07/09 07:35:00;;;;;;;23.23;11.75;;;19.10;99.90;;;;;;5030364;28;20038;-83
2021/07/09 07:38:21;;;;;;;19.55;10.23;;;19.00;99.90;;;;;;5044902;28;20060;-83
2021/07/09 07:41:07;;;;;;;23.60;10.93;;;19.00;99.90;;;;;;5028346;28;20105;-83
2021/07/09 07:44:07;;;;;;;18.48;9.35;;;19.10;99.90;;;;;;5026556;28;20889;-84
2021/07/09 07:46:49;;;;;;;17.60;10.77;;;19.20;99.90;;;;;;5044481;28;20045;-83
2021/07/09 07:49:44;;;;;;;23.50;10.63;;;19.30;99.90;;;;;;5015509;28;20061;-82
2021/07/09 07:52:58;;;;;;;21.27;10.88;;;19.50;99.90;;;;;;5016783;28;20058;-85
2021/07/09 07:56:00;;;;;;;24.13;12.30;;;19.60;99.90;;;;;;5024039;28;20061;-81
2021/07/09 08:01:53;;;;;;;17.63;9.70;;;19.90;99.90;;;;;;5033176;28;20060;-83
2021/07/09 08:04:35;;;;;;;19.38;9.77;;;19.80;99.90;;;;;;5044302;28;20041;-82
2021/07/09 08:07:17;;;;;;;;;;;;;;;;;;;;;
2021/07/09 08:10:29;;;;;;;19.27;9.88;;;19.80;99.90;;;;;;5001618;28;20047;-82
2021/07/09 08:13:12;;;;;;;18.50;10.52;;;19.60;99.90;;;;;;4981709;28;20065;-82
2021/07/09 08:15:46;;;;;;;21.17;10.32;;;20.00;99.90;;;;;;4967664;28;20084;-83
2021/07/09 08:18:19;;;;;;;23.75;11.00;;;20.10;99.90;;;;;;5001450;28;20062;-83
2021/07/09 08:20:55;;;;;;;21.42;11.15;;;20.20;99.90;;;;;;4984576;28;20069;-83
2021/07/09 08:23:31;;;;;;;20.52;9.45;;;20.20;99.90;;;;;;4992080;28;20046;-82
2021/07/09 08:26:22;;;;;;;21.60;9.55;;;20.30;99.90;;;;;;5006913;28;20059;-84
2021/07/09 08:29:30;;;;;;;17.52;9.48;;;20.30;99.90;;;;;;5033980;28;20064;-83
2021/07/09 08:32:20;;;;;;;17.02;9.13;;;20.50;99.90;;;;;;5024410;28;20053;-84
2021/07/09 08:35:24;;;;;;;;;;;;;;;;;;;;;
2021/07/09 08:38:15;;;;;;;18.00;8.52;;;20.60;99.90;;;;;;5041697;28;20051;-85
2021/07/09 08:41:44;;;;;;;;;;;;;;;;;;;;;
2021/07/09 08:44:47;;;;;;;16.13;9.02;;;20.80;99.90;;;;;;5015495;28;20050;-83
2021/07/09 08:47:41;;;;;;;;;;;20.90;99.90;;;;;;5018446;28;20061;-83
2021/07/09 08:50:37;;;;;;;17.45;7.65;;;20.90;99.90;;;;;;5038446;28;20561;-84
2021/07/09 08:53:09;;;;;;;20.30;9.35;;;20.10;99.90;;;;;;5041024;28;20046;-82
2021/07/09 08:55:55;;;;;;;22.53;11.23;;;21.00;99.90;;;;;;5034977;28;20056;-83
2021/07/09 08:58:41;;;;;;;16.90;8.25;;;21.10;99.90;;;;;;5042227;28;20050;-84
2021/07/09 09:01:12;;;;;;;21.05;8.70;;;21.10;99.90;;;;;;5042064;28;20055;-82
2021/07/09 09:03:44;;;;;;;23.95;10.13;;;21.20;99.90;;;;;;5040725;28;20045;-82
2021/07/09 09:07:07;;;;;;;19.48;9.27;;;22.10;99.90;;;;;;5034624;28;20061;-84
2021/07/09 09:10:30;;;;;;;21.60;9.77;;;21.60;99.90;;;;;;5005795;28;20119;-84
2021/07/09 09:13:12;;;;;;;16.38;9.02;;;21.50;99.90;;;;;;5022514;28;20046;-82
2021/07/09 09:16:10;;;;;;;16.08;8.45;;;21.60;99.90;;;;;;4989087;28;20058;-83
2021/07/09 09:19:05;;;;;;;18.80;8.93;;;21.60;99.90;;;;;;5025700;28;20056;-83
2021/07/09 09:21:36;;;;;;;;;;;21.70;99.90;;;;;;5040581;28;20057;-82
2021/07/09 09:24:30;;;;;;;14.73;7.85;;;21.70;99.90;;;;;;5042427;28;20507;-82
2021/07/09 09:28:06;;;;;;;19.65;7.90;;;21.70;99.90;;;;;;5015093;28;20249;-82
2021/07/09 09:30:56;;;;;;;20.20;8.90;;;21.80;99.90;;;;;;5041080;28;20068;-83
2021/07/09 09:33:46;;;;;;;14.80;7.43;;;21.90;99.90;;;;;;5025425;28;20055;-81
2021/07/09 09:36:34;;;;;;;;;;;;;;;;;;;;;
2021/07/09 09:39:20;;;;;;;16.52;8.07;;;21.90;99.90;;;;;;5045873;28;20052;-83
2021/07/09 09:42:55;;;;;;;17.23;8.40;;;21.90;99.90;;;;;;5033282;28;20057;-82
2021/07/09 09:45:26;;;;;;;18.38;7.70;;;22.10;99.90;;;;;;5033414;28;20057;-84
2021/07/09 09:48:07;;;;;;;19.70;8.18;;;22.20;99.90;;;;;;5038685;28;20050;-82
2021/07/09 09:51:02;;;;;;;15.93;7.93;;;22.30;99.90;;;;;;5038905;28;20061;-82
2021/07/09 09:54:09;;;;;;;;;;;;;;;;;;;;;
2021/07/09 09:56:47;;;;;;;18.77;6.88;;;22.60;99.90;;;;;;5037287;28;20053;-82
2021/07/09 09:59:32;;;;;;;13.98;7.57;;;22.90;99.90;;;;;;5044696;28;20063;-84
2021/07/09 10:02:13;;;;;;;15.23;7.00;;;23.00;99.90;;;;;;5037206;28;20056;-82
2021/07/09 10:05:09;;;;;;;14.20;5.82;;;23.10;99.90;;;;;;4985139;28;20064;-82
2021/07/09 10:07:52;;;;;;;11.95;7.13;;;23.10;99.90;;;;;;5023615;28;20058;-83
2021/07/09 10:10:35;;;;;;;15.93;6.07;;;23.30;99.90;;;;;;5025798;28;20512;-82
2021/07/09 10:13:32;;;;;;;7.95;4.53;;;23.40;99.90;;;;;;5025275;28;20058;-85
2021/07/09 10:16:02;;;;;;;12.35;5.85;;;23.50;99.90;;;;;;5042997;28;20061;-83
2021/07/09 10:18:33;;;;;;;18.88;5.95;;;23.20;99.90;;;;;;5023727;28;20057;-82
2021/07/09 10:21:04;;;;;;;10.75;6.72;;;23.70;99.90;;;;;;5026756;28;20047;-82
2021/07/09 10:24:19;;;;;;;15.75;5.20;;;24.00;99.90;;;;;;5034287;28;20042;-83
2021/07/09 10:27:04;;;;;;;;;;;23.90;99.90;;;;;;5038877;28;20058;-83
2021/07/09 10:30:41;;;;;;;;;;;;;;;;;;;;;
2021/07/09 10:34:00;;;;;;;7.93;4.32;;;24.10;99.90;;;;;;4982369;28;20063;-84
2021/07/09 10:37:03;;;;;;;10.55;4.85;;;24.10;99.90;;;;;;4951995;28;20059;-81
2021/07/09 10:40:15;;;;;;;15.32;4.55;;;24.20;99.90;;;;;;4982362;28;20055;-83
2021/07/09 10:42:56;;;;;;;11.30;5.07;;;24.80;99.90;;;;;;4984379;28;20058;-82
2021/07/09 10:45:44;;;;;;;8.73;4.65;;;24.40;99.90;;;;;;5001476;28;20056;-82
2021/07/09 10:48:20;;;;;;;10.80;5.05;;;24.50;99.90;;;;;;4982057;28;20054;-82
2021/07/09 10:51:04;;;;;;;7.57;4.82;;;24.40;99.90;;;;;;5018929;28;20126;-81
2021/07/09 10:53:47;;;;;;;7.30;4.00;;;25.30;99.90;;;;;;5024704;28;20054;-83
2021/07/09 10:56:32;;;;;;;9.95;4.40;;;24.50;99.90;;;;;;5016201;28;20045;-82
2021/07/09 10:59:10;;;;;;;7.63;3.78;;;24.50;99.90;;;;;;5024999;28;20046;-82
2021/07/09 11:01:56;;;;;;;10.07;4.05;;;23.70;99.90;;;;;;5023456;28;20062;-83
2021/07/09 11:04:45;;;;;;;11.20;4.78;;;24.60;99.90;;;;;;5023350;28;20056;-82
2021/07/09 11:07:21;;;;;;;10.10;4.80;;;24.50;99.90;;;;;;5022953;28;20058;-82
2021/07/09 11:09:52;;;;;;;10.95;4.35;;;24.60;99.90;;;;;;5036546;28;20056;-81
2021/07/09 11:12:29;;;;;;;10.77;4.18;;;24.60;99.90;;;;;;5019370;28;20052;-83
2021/07/09 11:15:03;;;;;;;12.38;4.88;;;24.60;99.90;;;;;;5043631;28;20041;-83
2021/07/09 11:17:42;;;;;;;9.95;4.47;;;24.50;99.90;;;;;;5039717;28;20382;-82
2021/07/09 11:20:17;;;;;;;9.55;3.67;;;23.70;99.90;;;;;;5022886;28;20056;-82
2021/07/09 11:22:53;;;;;;;9.77;3.05;;;23.80;99.90;;;;;;5038577;28;20080;-82
2021/07/09 11:25:28;;;;;;;9.20;5.05;;;24.60;99.90;;;;;;5023250;28;20058;-83
2021/07/09 11:28:01;;;;;;;7.85;4.88;;;24.50;99.90;;;;;;5030441;28;20232;-83
2021/07/09 11:30:38;;;;;;;12.13;3.67;;;24.60;99.90;;;;;;5006383;28;20061;-82
2021/07/09 11:33:30;;;;;;;5.80;3.50;;;24.80;99.90;;;;;;5024331;28;20647;-83
2021/07/09 11:36:29;;;;;;;;;;;;;;;;;;;;;
2021/07/09 11:39:15;;;;;;;18.30;4.72;;;25.30;99.90;;;;;;5042842;28;20041;-81
2021/07/09 11:42:02;;;;;;;8.18;3.90;;;25.60;99.90;;;;;;5023741;28;20291;-83
2021/07/09 11:44:39;;;;;;;7.05;4.03;;;25.60;99.00;;;;;;5039970;28;20048;-83
2021/07/09 11:47:49;;;;;;;11.57;4.53;;;25.50;98.90;;;;;;5039768;28;20053;-83
2021/07/09 11:50:39;;;;;;;11.40;4.28;;;25.50;98.90;;;;;;5044076;28;20053;-84
2021/07/09 11:53:26;;;;;;;8.73;3.90;;;25.30;99.60;;;;;;5036326;28;20052;-82
2021/07/09 11:55:54;;;;;;;9.73;4.18;;;25.10;99.70;;;;;;5042172;28;20048;-83
2021/07/09 11:58:26;;;;;;;8.15;3.75;;;25.00;99.50;;;;;;5042261;28;20037;-83
2021/07/09 12:00:57;;;;;;;12.25;4.18;;;24.80;99.30;;;;;;5041147;28;20041;-82
2021/07/09 12:03:28;;;;;;;10.77;4.15;;;24.60;99.90;;;;;;5032317;28;20075;-83
2021/07/09 12:06:05;;;;;;;13.35;4.50;;;24.70;99.90;;;;;;5025252;28;20348;-83
2021/07/09 12:08:42;;;;;;;8.30;3.95;;;24.80;99.90;;;;;;5034332;28;20483;-83
2021/07/09 12:11:30;;;;;;;8.43;3.95;;;25.10;99.90;;;;;;5056146;28;20049;-84
2021/07/09 12:14:06;;;;;;;7.00;4.05;;;25.40;99.90;;;;;;5022285;28;20060;-83
2021/07/09 12:16:43;;;;;;;6.60;3.55;;;25.50;99.30;;;;;;5006022;28;20625;-83
2021/07/09 12:19:19;;;;;;;6.80;3.35;;;26.60;99.90;;;;;;5040416;28;20045;-82
2021/07/09 12:21:56;;;;;;;5.97;3.97;;;25.50;99.20;;;;;;5039374;28;20045;-82
2021/07/09 12:24:25;;;;;;;7.70;3.83;;;25.30;98.60;;;;;;5036972;28;20050;-84
2021/07/09 12:26:54;;;;;;;9.25;3.40;;;25.20;98.90;;;;;;5037924;28;20088;-83
2021/07/09 12:29:27;;;;;;;9.73;3.63;;;25.20;99.20;;;;;;5022846;28;20391;-83
2021/07/09 12:31:59;;;;;;;10.07;3.63;;;24.60;99.50;;;;;;5036848;28;20041;-82
2021/07/09 12:34:32;;;;;;;9.23;4.07;;;25.10;99.50;;;;;;5042359;28;20045;-82
2021/07/09 12:37:04;;;;;;;7.22;3.95;;;25.10;98.90;;;;;;5024651;28;20041;-81
2021/07/09 12:40:12;;;;;;;8.10;3.80;;;25.80;98.80;;;;;;5042612;28;20049;-86
2021/07/09 12:43:45;;;;;;;11.18;3.80;;;25.00;98.20;;;;;;5002241;28;21225;-84
2021/07/09 12:46:46;;;;;;;6.57;3.75;;;24.80;98.00;;;;;;5022334;28;20056;-84
2021/07/09 12:50:49;;;;;;;12.50;3.58;;;25.30;98.20;;;;;;5034267;28;20049;-85
2021/07/09 12:54:31;;;;;;;;;;;;;;;;;;;;;
2021/07/09 12:58:15;;;;;;;5.63;3.65;;;24.60;97.30;;;;;;4952427;28;20056;-84
2021/07/09 13:01:36;;;;;;;9.25;3.88;;;24.20;96.90;;;;;;4967267;28;20046;-85
2021/07/09 13:05:02;;;;;;;6.95;3.25;;;25.30;97.40;;;;;;4889037;29;20052;-84
2021/07/09 13:08:56;;;;;;;;;;;;;;;;;;;;;
2021/07/09 13:16:51;;;;;;;6.38;3.25;;;25.70;97.20;;;;;;4872796;29;20076;-82
2021/07/09 13:19:37;;;;;;;5.20;3.17;;;26.20;95.80;;;;;;4933662;29;20190;-82
2021/07/09 13:22:42;;;;;;;6.53;2.90;;;26.40;95.50;;;;;;4945796;29;20067;-83
2021/07/09 13:25:25;;;;;;;4.78;2.80;;;26.50;95.10;;;;;;4916171;29;20052;-83
2021/07/09 13:28:36;;;;;;;8.07;3.53;;;27.00;95.10;;;;;;4934128;29;20066;-83
2021/07/09 13:31:17;;;;;;;9.95;3.58;;;27.10;94.00;;;;;;4939024;29;20052;-82
2021/07/09 13:33:57;;;;;;;5.78;2.53;;;27.30;94.30;;;;;;4998932;28;20061;-84
2021/07/09 13:36:34;;;;;;;10.05;3.90;;;27.40;94.00;;;;;;4958482;28;20183;-83
2021/07/09 13:39:23;;;;;;;7.10;3.15;;;27.50;93.70;;;;;;4988461;28;20185;-83
2021/07/09 13:41:57;;;;;;;6.45;3.30;;;27.60;93.60;;;;;;5012560;28;20126;-82
2021/07/09 13:44:27;;;;;;;4.43;2.58;;;27.80;93.20;;;;;;5017798;28;20662;-82
2021/07/09 13:46:57;;;;;;;6.30;3.42;;;28.00;92.50;;;;;;5011158;28;20054;-82
2021/07/09 13:49:28;;;;;;;8.20;3.03;;;28.10;92.20;;;;;;5001960;28;20042;-83
2021/07/09 13:51:59;;;;;;;8.15;3.08;;;28.20;92.40;;;;;;4985356;28;20056;-82
2021/07/09 13:54:33;;;;;;;6.03;3.30;;;28.30;92.10;;;;;;5035961;28;20061;-82